sensor_id;sensor_type;location;lat;lon;timestamp;pressure;altitude;pressure_sealevel;temperature;humidity
12203;BME280;6164;42.178;24.622;2023-04-30T00:02:01;99349.75;;;14.14;100.00
12203;BME280;6164;42.178;24.622;2023-04-30T00:04:29;99353.38;;;14.07;100.00
12203;BME280;6164;42.178;24.622;2023-04-30T00:06:56;99353.22;;;14.08;100.00
12203;BME280;6164;42.178;24.622;2023-04-30T00:09:23;99348.06;;;14.07;100.00
12203;BME280;6164;42.178;24.622;2023-04-30T00:11:49;99347.28;;;14.06;100.00
12203;BME280;6164;42.178;24.622;2023-04-30T00:14:16;99343.16;;;14.04;100.00
12203;BME280;6164;42.178;24.622;2023-04-30T00:16:43;99347.47;;;14.05;100.00
12203;BME280;6164;42.178;24.622;2023-04-30T00:19:09;99349.53;;;14.09;100.00
12203;BME280;6164;42.178;24.622;2023-04-30T00:21:38;99348.91;;;14.07;100.00
12203;BME280;6164;42.178;24.622;2023-04-30T00:24:04;99351.78;;;14.12;100.00
12203;BME280;6164;42.178;24.622;2023-04-30T00:26:31;99354.25;;;14.14;100.00
12203;BME280;6164;42.178;24.622;2023-04-30T00:28:58;99361.44;;;14.20;100.00
12203;BME280;6164;42.178;24.622;2023-04-30T00:31:25;99360.84;;;14.24;100.00
12203;BME280;6164;42.178;24.622;2023-04-30T00:33:51;99355.78;;;14.29;100.00
12203;BME280;6164;42.178;24.622;2023-04-30T00:36:18;99311.53;;;14.09;100.00
12203;BME280;6164;42.178;24.622;2023-04-30T00:38:46;99350.88;;;14.26;100.00
12203;BME280;6164;42.178;24.622;2023-04-30T00:41:13;99348.47;;;14.31;100.00
12203;BME280;6164;42.178;24.622;2023-04-30T00:43:40;99351.94;;;14.38;100.00
12203;BME280;6164;42.178;24.622;2023-04-30T00:46:07;99338.69;;;14.45;100.00
12203;BME280;6164;42.178;24.622;2023-04-30T00:48:33;99339.94;;;14.49;100.00
12203;BME280;6164;42.178;24.622;2023-04-30T00:51:01;99317.84;;;14.42;100.00
12203;BME280;6164;42.178;24.622;2023-04-30T00:53:30;99325.84;;;14.55;100.00
12203;BME280;6164;42.178;24.622;2023-04-30T00:55:58;99330.16;;;14.56;100.00
12203;BME280;6164;42.178;24.622;2023-04-30T00:58:25;99324.44;;;14.59;100.00
12203;BME280;6164;42.178;24.622;2023-04-30T01:00:52;99306.03;;;14.51;100.00
12203;BME280;6164;42.178;24.622;2023-04-30T01:03:19;99324.22;;;14.61;99.63
12203;BME280;6164;42.178;24.622;2023-04-30T01:05:47;99328.94;;;14.59;99.58
12203;BME280;6164;42.178;24.622;2023-04-30T01:08:14;99324.16;;;14.34;100.00
12203;BME280;6164;42.178;24.622;2023-04-30T01:10:47;99323.09;;;14.29;100.00
12203;BME280;6164;42.178;24.622;2023-04-30T01:13:21;99329.03;;;14.31;100.00
12203;BME280;6164;42.178;24.622;2023-04-30T01:15:55;99334.38;;;14.37;100.00
12203;BME280;6164;42.178;24.622;2023-04-30T01:18:27;99336.00;;;14.38;100.00
12203;BME280;6164;42.178;24.622;2023-04-30T01:20:58;99333.78;;;14.42;100.00
12203;BME280;6164;42.178;24.622;2023-04-30T01:23:40;99323.94;;;14.36;100.00
12203;BME280;6164;42.178;24.622;2023-04-30T01:26:14;99327.16;;;14.25;100.00
12203;BME280;6164;42.178;24.622;2023-04-30T01:28:45;99323.31;;;14.27;100.00
12203;BME280;6164;42.178;24.622;2023-04-30T01:31:12;99320.84;;;14.26;100.00
12203;BME280;6164;42.178;24.622;2023-04-30T01:33:39;99322.69;;;14.32;100.00
12203;BME280;6164;42.178;24.622;2023-04-30T01:36:23;99327.59;;;14.35;100.00
12203;BME280;6164;42.178;24.622;2023-04-30T01:39:01;99315.13;;;14.29;100.00
12203;BME280;6164;42.178;24.622;2023-04-30T01:41:35;99303.63;;;14.22;100.00
12203;BME280;6164;42.178;24.622;2023-04-30T01:44:28;99318.41;;;14.31;100.00
12203;BME280;6164;42.178;24.622;2023-04-30T01:47:05;99312.06;;;14.25;100.00
12203;BME280;6164;42.178;24.622;2023-04-30T01:49:43;99320.84;;;14.26;100.00
12203;BME280;6164;42.178;24.622;2023-04-30T01:52:21;99329.19;;;14.23;100.00
12203;BME280;6164;42.178;24.622;2023-04-30T01:54:52;99326.72;;;14.21;100.00
12203;BME280;6164;42.178;24.622;2023-04-30T01:57:25;99324.28;;;14.20;100.00
12203;BME280;6164;42.178;24.622;2023-04-30T01:59:54;99324.66;;;14.17;100.00
12203;BME280;6164;42.178;24.622;2023-04-30T02:02:21;99320.97;;;14.11;100.00
12203;BME280;6164;42.178;24.622;2023-04-30T02:04:48;99320.13;;;14.11;100.00
12203;BME280;6164;42.178;24.622;2023-04-30T02:07:24;99323.81;;;14.10;100.00
12203;BME280;6164;42.178;24.622;2023-04-30T02:09:54;99314.41;;;14.07;100.00
12203;BME280;6164;42.178;24.622;2023-04-30T02:12:21;99326.25;;;14.05;100.00
12203;BME280;6164;42.178;24.622;2023-04-30T02:14:48;99320.69;;;14.00;100.00
12203;BME280;6164;42.178;24.622;2023-04-30T02:17:16;99331.31;;;14.00;100.00
12203;BME280;6164;42.178;24.622;2023-04-30T02:19:43;99321.25;;;13.95;100.00
12203;BME280;6164;42.178;24.622;2023-04-30T02:22:09;99324.94;;;13.94;100.00
12203;BME280;6164;42.178;24.622;2023-04-30T02:24:36;99325.56;;;13.96;100.00
12203;BME280;6164;42.178;24.622;2023-04-30T02:27:03;99324.31;;;13.92;100.00
12203;BME280;6164;42.178;24.622;2023-04-30T02:29:30;99337.59;;;13.92;100.00
12203;BME280;6164;42.178;24.622;2023-04-30T02:31:58;99322.50;;;13.93;100.00
12203;BME280;6164;42.178;24.622;2023-04-30T02:34:26;99329.06;;;13.97;100.00
12203;BME280;6164;42.178;24.622;2023-04-30T02:36:53;99331.31;;;14.00;100.00
12203;BME280;6164;42.178;24.622;2023-04-30T02:39:19;99326.63;;;14.02;100.00
12203;BME280;6164;42.178;24.622;2023-04-30T02:41:46;99329.47;;;14.00;100.00
12203;BME280;6164;42.178;24.622;2023-04-30T02:44:13;99329.22;;;13.95;100.00
12203;BME280;6164;42.178;24.622;2023-04-30T02:46:40;99326.22;;;13.98;100.00
12203;BME280;6164;42.178;24.622;2023-04-30T02:49:06;99326.81;;;14.00;100.00
12203;BME280;6164;42.178;24.622;2023-04-30T02:51:34;99325.78;;;13.95;100.00
12203;BME280;6164;42.178;24.622;2023-04-30T02:54:01;99325.56;;;13.96;100.00
12203;BME280;6164;42.178;24.622;2023-04-30T02:56:28;99322.50;;;13.93;100.00
12203;BME280;6164;42.178;24.622;2023-04-30T02:58:55;99321.66;;;13.92;100.00
12203;BME280;6164;42.178;24.622;2023-04-30T03:01:21;99323.31;;;13.93;100.00
12203;BME280;6164;42.178;24.622;2023-04-30T03:03:48;99322.06;;;13.89;100.00
12203;BME280;6164;42.178;24.622;2023-04-30T03:06:15;99305.84;;;13.71;100.00
12203;BME280;6164;42.178;24.622;2023-04-30T03:08:43;99330.78;;;13.77;100.00
12203;BME280;6164;42.178;24.622;2023-04-30T03:11:10;99332.78;;;13.75;100.00
12203;BME280;6164;42.178;24.622;2023-04-30T03:13:36;99336.47;;;13.74;100.00
12203;BME280;6164;42.178;24.622;2023-04-30T03:16:03;99347.88;;;13.74;100.00
12203;BME280;6164;42.178;24.622;2023-04-30T03:18:31;99340.47;;;13.63;100.00
12203;BME280;6164;42.178;24.622;2023-04-30T03:20:58;99343.56;;;13.39;100.00
12203;BME280;6164;42.178;24.622;2023-04-30T03:23:26;99344.66;;;13.23;100.00
12203;BME280;6164;42.178;24.622;2023-04-30T03:25:54;99347.25;;;13.17;100.00
12203;BME280;6164;42.178;24.622;2023-04-30T03:28:21;99353.13;;;13.12;100.00
12203;BME280;6164;42.178;24.622;2023-04-30T03:30:48;99346.75;;;13.07;100.00
12203;BME280;6164;42.178;24.622;2023-04-30T03:33:14;99344.84;;;13.01;100.00
12203;BME280;6164;42.178;24.622;2023-04-30T03:35:41;99354.41;;;12.81;100.00
12203;BME280;6164;42.178;24.622;2023-04-30T03:38:08;99362.22;;;12.68;100.00
12203;BME280;6164;42.178;24.622;2023-04-30T03:40:34;99366.22;;;12.64;100.00
12203;BME280;6164;42.178;24.622;2023-04-30T03:43:03;99363.69;;;12.56;100.00
12203;BME280;6164;42.178;24.622;2023-04-30T03:45:29;99370.66;;;12.57;100.00
12203;BME280;6164;42.178;24.622;2023-04-30T03:47:56;99369.19;;;12.54;100.00
12203;BME280;6164;42.178;24.622;2023-04-30T03:50:23;99378.31;;;12.52;100.00
12203;BME280;6164;42.178;24.622;2023-04-30T03:52:50;99374.22;;;12.49;100.00
12203;BME280;6164;42.178;24.622;2023-04-30T03:55:17;99380.97;;;12.52;100.00
12203;BME280;6164;42.178;24.622;2023-04-30T03:57:44;99379.59;;;12.56;100.00
12203;BME280;6164;42.178;24.622;2023-04-30T04:00:12;99387.72;;;12.54;100.00
12203;BME280;6164;42.178;24.622;2023-04-30T04:02:40;99384.88;;;12.56;100.00
12203;BME280;6164;42.178;24.622;2023-04-30T04:05:07;99401.69;;;12.63;100.00
12203;BME280;6164;42.178;24.622;2023-04-30T04:07:33;99400.91;;;12.69;100.00
12203;BME280;6164;42.178;24.622;2023-04-30T04:10:00;99392.72;;;12.64;100.00
12203;BME280;6164;42.178;24.622;2023-04-30T04:12:27;99393.91;;;12.61;100.00
12203;BME280;6164;42.178;24.622;2023-04-30T04:14:54;99404.13;;;12.64;100.00
12203;BME280;6164;42.178;24.622;2023-04-30T04:17:22;99363.34;;;12.44;100.00
12203;BME280;6164;42.178;24.622;2023-04-30T04:19:49;99403.88;;;12.59;100.00
12203;BME280;6164;42.178;24.622;2023-04-30T04:22:15;99401.56;;;12.71;100.00
12203;BME280;6164;42.178;24.622;2023-04-30T04:24:42;99406.38;;;12.82;100.00
12203;BME280;6164;42.178;24.622;2023-04-30T04:27:09;99403.31;;;12.99;100.00
12203;BME280;6164;42.178;24.622;2023-04-30T04:29:35;99394.81;;;13.04;100.00
12203;BME280;6164;42.178;24.622;2023-04-30T04:32:02;99408.84;;;13.19;100.00
12203;BME280;6164;42.178;24.622;2023-04-30T04:34:31;99406.00;;;13.20;100.00
12203;BME280;6164;42.178;24.622;2023-04-30T04:36:58;99408.00;;;13.18;100.00
12203;BME280;6164;42.178;24.622;2023-04-30T04:39:25;99399.63;;;13.15;100.00
12203;BME280;6164;42.178;24.622;2023-04-30T04:41:52;99410.53;;;13.27;100.00
12203;BME280;6164;42.178;24.622;2023-04-30T04:44:19;99405.28;;;13.33;100.00
12203;BME280;6164;42.178;24.622;2023-04-30T04:46:47;99407.81;;;13.41;100.00
12203;BME280;6164;42.178;24.622;2023-04-30T04:49:18;99386.09;;;13.31;100.00
12203;BME280;6164;42.178;24.622;2023-04-30T04:51:46;99410.84;;;13.38;100.00
12203;BME280;6164;42.178;24.622;2023-04-30T04:54:13;99410.22;;;13.36;100.00
12203;BME280;6164;42.178;24.622;2023-04-30T04:56:39;99411.34;;;13.48;100.00
12203;BME280;6164;42.178;24.622;2023-04-30T04:59:06;99405.75;;;13.64;100.00
12203;BME280;6164;42.178;24.622;2023-04-30T05:01:33;99417.34;;;13.84;100.00
12203;BME280;6164;42.178;24.622;2023-04-30T05:03:59;99404.81;;;13.99;100.00
12203;BME280;6164;42.178;24.622;2023-04-30T05:06:26;99410.22;;;14.19;100.00
12203;BME280;6164;42.178;24.622;2023-04-30T05:08:54;99408.28;;;14.27;100.00
12203;BME280;6164;42.178;24.622;2023-04-30T05:11:21;99401.59;;;14.38;100.00
12203;BME280;6164;42.178;24.622;2023-04-30T05:13:48;99409.72;;;14.36;100.00
12203;BME280;6164;42.178;24.622;2023-04-30T05:16:14;99381.91;;;14.26;100.00
12203;BME280;6164;42.178;24.622;2023-04-30T05:18:41;99409.97;;;14.41;100.00
12203;BME280;6164;42.178;24.622;2023-04-30T05:21:08;99403.63;;;14.36;100.00
12203;BME280;6164;42.178;24.622;2023-04-30T05:23:35;99412.84;;;14.46;100.00
12203;BME280;6164;42.178;24.622;2023-04-30T05:26:03;99410.31;;;14.66;100.00
12203;BME280;6164;42.178;24.622;2023-04-30T05:28:30;99410.69;;;14.70;100.00
12203;BME280;6164;42.178;24.622;2023-04-30T05:30:58;99415.03;;;14.77;100.00
12203;BME280;6164;42.178;24.622;2023-04-30T05:33:24;99418.13;;;14.81;100.00
12203;BME280;6164;42.178;24.622;2023-04-30T05:35:51;99407.72;;;14.86;100.00
12203;BME280;6164;42.178;24.622;2023-04-30T05:38:18;99405.44;;;14.89;100.00
12203;BME280;6164;42.178;24.622;2023-04-30T05:40:45;99405.91;;;15.06;100.00
12203;BME280;6164;42.178;24.622;2023-04-30T05:43:13;99407.97;;;15.10;100.00
12203;BME280;6164;42.178;24.622;2023-04-30T05:45:39;99403.88;;;15.21;100.00
12203;BME280;6164;42.178;24.622;2023-04-30T05:48:06;99410.66;;;15.30;100.00
12203;BME280;6164;42.178;24.622;2023-04-30T05:50:33;99409.63;;;15.37;100.00
12203;BME280;6164;42.178;24.622;2023-04-30T05:52:59;99406.56;;;15.27;100.00
12203;BME280;6164;42.178;24.622;2023-04-30T05:55:26;99406.56;;;15.34;100.00
12203;BME280;6164;42.178;24.622;2023-04-30T05:57:53;99418.03;;;15.34;100.00
12203;BME280;6164;42.178;24.622;2023-04-30T06:00:21;99420.25;;;15.24;100.00
12203;BME280;6164;42.178;24.622;2023-04-30T06:02:48;99419.06;;;15.27;100.00
12203;BME280;6164;42.178;24.622;2023-04-30T06:05:15;99413.72;;;15.27;100.00
12203;BME280;6164;42.178;24.622;2023-04-30T06:07:41;99405.97;;;15.25;100.00
12203;BME280;6164;42.178;24.622;2023-04-30T06:10:09;99414.19;;;15.43;100.00
12203;BME280;6164;42.178;24.622;2023-04-30T06:12:37;99420.53;;;15.55;100.00
12203;BME280;6164;42.178;24.622;2023-04-30T06:15:06;99408.22;;;15.35;100.00
12203;BME280;6164;42.178;24.622;2023-04-30T06:17:34;99418.06;;;15.41;100.00
12203;BME280;6164;42.178;24.622;2023-04-30T06:20:00;99409.25;;;15.53;100.00
12203;BME280;6164;42.178;24.622;2023-04-30T06:22:31;99417.44;;;15.52;99.33
12203;BME280;6164;42.178;24.622;2023-04-30T06:24:58;99418.06;;;15.60;99.48
12203;BME280;6164;42.178;24.622;2023-04-30T06:27:25;99423.19;;;15.68;95.58
12203;BME280;6164;42.178;24.622;2023-04-30T06:29:58;99418.47;;;15.77;95.46
12203;BME280;6164;42.178;24.622;2023-04-30T06:32:25;99409.28;;;15.79;93.57
12203;BME280;6164;42.178;24.622;2023-04-30T06:34:54;99395.34;;;15.91;93.27
12203;BME280;6164;42.178;24.622;2023-04-30T06:37:20;99408.00;;;16.08;89.22
12203;BME280;6164;42.178;24.622;2023-04-30T06:39:48;99394.88;;;16.20;90.94
12203;BME280;6164;42.178;24.622;2023-04-30T06:42:14;99404.09;;;16.24;93.01
12203;BME280;6164;42.178;24.622;2023-04-30T06:44:41;99402.78;;;16.39;92.51
12203;BME280;6164;42.178;24.622;2023-04-30T06:47:08;99401.09;;;16.64;90.57
12203;BME280;6164;42.178;24.622;2023-04-30T06:49:34;99405.72;;;16.82;83.89
12203;BME280;6164;42.178;24.622;2023-04-30T06:52:03;99397.66;;;17.01;82.01
12203;BME280;6164;42.178;24.622;2023-04-30T06:54:29;99401.03;;;17.15;81.40
12203;BME280;6164;42.178;24.622;2023-04-30T06:56:56;99402.84;;;17.21;80.24
12203;BME280;6164;42.178;24.622;2023-04-30T06:59:23;99396.16;;;17.37;80.87
12203;BME280;6164;42.178;24.622;2023-04-30T07:01:49;99402.66;;;17.54;80.54
12203;BME280;6164;42.178;24.622;2023-04-30T07:04:16;99395.59;;;17.35;77.97
12203;BME280;6164;42.178;24.622;2023-04-30T07:06:43;99401.66;;;17.48;77.29
12203;BME280;6164;42.178;24.622;2023-04-30T07:09:11;99394.38;;;17.62;77.67
12203;BME280;6164;42.178;24.622;2023-04-30T07:11:40;99392.03;;;17.72;77.29
12203;BME280;6164;42.178;24.622;2023-04-30T07:14:07;99390.84;;;17.86;77.38
12203;BME280;6164;42.178;24.622;2023-04-30T07:16:33;99405.97;;;17.98;74.38
12203;BME280;6164;42.178;24.622;2023-04-30T07:19:00;99395.84;;;17.82;73.24
12203;BME280;6164;42.178;24.622;2023-04-30T07:21:27;99398.09;;;18.03;75.57
12203;BME280;6164;42.178;24.622;2023-04-30T07:23:53;99398.78;;;18.17;72.54
12203;BME280;6164;42.178;24.622;2023-04-30T07:26:22;99398.78;;;18.17;71.04
12203;BME280;6164;42.178;24.622;2023-04-30T07:28:50;99405.00;;;18.29;72.15
12203;BME280;6164;42.178;24.622;2023-04-30T07:31:16;99405.03;;;18.47;70.38
12203;BME280;6164;42.178;24.622;2023-04-30T07:33:43;99399.91;;;18.27;69.28
12203;BME280;6164;42.178;24.622;2023-04-30T07:36:10;99400.66;;;18.34;70.01
12203;BME280;6164;42.178;24.622;2023-04-30T07:38:37;99388.34;;;18.52;69.75
12203;BME280;6164;42.178;24.622;2023-04-30T07:41:03;99396.34;;;18.70;70.90
12203;BME280;6164;42.178;24.622;2023-04-30T07:43:32;99397.22;;;18.82;69.19
12203;BME280;6164;42.178;24.622;2023-04-30T07:45:58;99404.75;;;18.55;66.97
12203;BME280;6164;42.178;24.622;2023-04-30T07:48:25;99399.81;;;18.34;68.69
12203;BME280;6164;42.178;24.622;2023-04-30T07:50:52;99393.00;;;18.38;69.55
12203;BME280;6164;42.178;24.622;2023-04-30T07:53:18;99393.25;;;18.55;69.33
12203;BME280;6164;42.178;24.622;2023-04-30T07:55:45;99387.66;;;18.74;68.39
12203;BME280;6164;42.178;24.622;2023-04-30T07:58:12;99389.47;;;18.92;67.79
12203;BME280;6164;42.178;24.622;2023-04-30T08:00:40;99388.13;;;19.01;67.15
12203;BME280;6164;42.178;24.622;2023-04-30T08:03:07;99379.31;;;19.12;66.60
12203;BME280;6164;42.178;24.622;2023-04-30T08:05:33;99396.72;;;19.32;65.74
12203;BME280;6164;42.178;24.622;2023-04-30T08:08:00;99392.78;;;19.35;64.07
12203;BME280;6164;42.178;24.622;2023-04-30T08:10:28;99386.78;;;19.21;64.09
12203;BME280;6164;42.178;24.622;2023-04-30T08:12:55;99381.84;;;19.36;64.75
12203;BME280;6164;42.178;24.622;2023-04-30T08:15:22;99391.41;;;19.55;64.18
12203;BME280;6164;42.178;24.622;2023-04-30T08:17:50;99409.94;;;19.57;60.59
12203;BME280;6164;42.178;24.622;2023-04-30T08:20:17;99404.09;;;19.48;60.22
12203;BME280;6164;42.178;24.622;2023-04-30T08:22:45;99385.03;;;19.68;62.29
12203;BME280;6164;42.178;24.622;2023-04-30T08:25:12;99393.78;;;19.75;58.36
12203;BME280;6164;42.178;24.622;2023-04-30T08:27:38;99415.22;;;19.98;57.07
12203;BME280;6164;42.178;24.622;2023-04-30T08:30:06;99438.53;;;19.98;54.68
12203;BME280;6164;42.178;24.622;2023-04-30T08:32:33;99430.50;;;20.09;55.02
12203;BME280;6164;42.178;24.622;2023-04-30T08:35:02;99420.94;;;20.25;56.18
12203;BME280;6164;42.178;24.622;2023-04-30T08:37:29;99431.53;;;20.31;54.25
12203;BME280;6164;42.178;24.622;2023-04-30T08:39:56;99436.78;;;20.15;52.67
12203;BME280;6164;42.178;24.622;2023-04-30T08:42:24;99436.75;;;20.61;53.22
12203;BME280;6164;42.178;24.622;2023-04-30T08:44:52;99445.75;;;20.94;52.88
12203;BME280;6164;42.178;24.622;2023-04-30T08:47:19;99449.53;;;20.82;51.92
12203;BME280;6164;42.178;24.622;2023-04-30T08:49:46;99481.59;;;21.00;49.38
12203;BME280;6164;42.178;24.622;2023-04-30T08:52:14;99470.31;;;21.26;49.66
12203;BME280;6164;42.178;24.622;2023-04-30T08:54:42;99474.00;;;21.53;48.34
12203;BME280;6164;42.178;24.622;2023-04-30T08:57:10;99494.00;;;21.74;47.30
12203;BME280;6164;42.178;24.622;2023-04-30T08:59:37;99468.31;;;21.94;49.18
12203;BME280;6164;42.178;24.622;2023-04-30T09:02:04;99488.09;;;22.05;47.25
12203;BME280;6164;42.178;24.622;2023-04-30T09:04:32;99496.16;;;21.88;47.21
12203;BME280;6164;42.178;24.622;2023-04-30T09:06:59;99552.09;;;21.63;44.54
12203;BME280;6164;42.178;24.622;2023-04-30T09:09:30;99505.47;;;21.81;46.51
12203;BME280;6164;42.178;24.622;2023-04-30T09:12:13;99526.25;;;22.35;45.72
12203;BME280;6164;42.178;24.622;2023-04-30T09:14:40;99565.28;;;22.54;43.61
12203;BME280;6164;42.178;24.622;2023-04-30T09:17:07;99565.75;;;22.35;43.45
12203;BME280;6164;42.178;24.622;2023-04-30T09:19:37;99558.03;;;22.38;43.69
12203;BME280;6164;42.178;24.622;2023-04-30T09:22:20;99576.06;;;22.54;43.00
12203;BME280;6164;42.178;24.622;2023-04-30T09:24:49;99560.88;;;23.03;44.17
12203;BME280;6164;42.178;24.622;2023-04-30T09:27:18;99565.25;;;23.47;43.20
12203;BME280;6164;42.178;24.622;2023-04-30T09:29:45;99566.81;;;23.05;41.78
12203;BME280;6164;42.178;24.622;2023-04-30T09:32:12;99614.00;;;23.07;40.47
12203;BME280;6164;42.178;24.622;2023-04-30T09:34:39;99591.97;;;22.94;41.42
12203;BME280;6164;42.178;24.622;2023-04-30T09:37:08;99572.25;;;22.88;42.48
12203;BME280;6164;42.178;24.622;2023-04-30T09:39:46;99574.75;;;22.95;42.48
12203;BME280;6164;42.178;24.622;2023-04-30T09:42:15;99579.63;;;22.76;41.96
12203;BME280;6164;42.178;24.622;2023-04-30T09:44:42;99574.66;;;22.68;41.84
12203;BME280;6164;42.178;24.622;2023-04-30T09:47:14;99552.22;;;22.79;43.06
12203;BME280;6164;42.178;24.622;2023-04-30T09:49:42;99559.00;;;22.49;43.17
12203;BME280;6164;42.178;24.622;2023-04-30T09:52:09;99556.00;;;22.45;42.95
12203;BME280;6164;42.178;24.622;2023-04-30T09:54:37;99540.91;;;22.61;43.38
12203;BME280;6164;42.178;24.622;2023-04-30T09:57:04;99539.25;;;22.76;42.44
12203;BME280;6164;42.178;24.622;2023-04-30T09:59:35;99510.63;;;22.70;43.04
12203;BME280;6164;42.178;24.622;2023-04-30T10:02:05;99537.81;;;22.90;43.19
12203;BME280;6164;42.178;24.622;2023-04-30T10:04:33;99538.47;;;22.59;43.00
12203;BME280;6164;42.178;24.622;2023-04-30T10:07:03;99526.06;;;22.42;43.77
12203;BME280;6164;42.178;24.622;2023-04-30T10:09:36;99528.09;;;22.18;43.53
12203;BME280;6164;42.178;24.622;2023-04-30T10:12:07;99492.50;;;22.28;44.01
12203;BME280;6164;42.178;24.622;2023-04-30T10:14:41;99488.19;;;22.27;43.78
12203;BME280;6164;42.178;24.622;2023-04-30T10:17:13;99487.19;;;22.33;44.66
12203;BME280;6164;42.178;24.622;2023-04-30T10:19:48;99461.75;;;22.40;44.66
12203;BME280;6164;42.178;24.622;2023-04-30T10:22:18;99479.66;;;22.68;44.33
12203;BME280;6164;42.178;24.622;2023-04-30T10:24:46;99496.44;;;22.75;43.17
12203;BME280;6164;42.178;24.622;2023-04-30T10:27:13;99497.59;;;22.46;43.17
12203;BME280;6164;42.178;24.622;2023-04-30T10:29:42;99491.44;;;22.62;43.44
12203;BME280;6164;42.178;24.622;2023-04-30T10:32:11;99494.53;;;22.75;43.52
12203;BME280;6164;42.178;24.622;2023-04-30T10:34:45;99485.16;;;22.56;43.71
12203;BME280;6164;42.178;24.622;2023-04-30T10:37:20;99483.09;;;22.47;43.89
12203;BME280;6164;42.178;24.622;2023-04-30T10:39:47;99489.78;;;22.28;43.80
12203;BME280;6164;42.178;24.622;2023-04-30T10:42:16;99474.28;;;22.51;43.24
12203;BME280;6164;42.178;24.622;2023-04-30T10:44:44;99497.66;;;22.67;42.07
12203;BME280;6164;42.178;24.622;2023-04-30T10:47:13;99499.22;;;22.80;42.13
12203;BME280;6164;42.178;24.622;2023-04-30T10:49:44;99521.72;;;22.95;41.69
12203;BME280;6164;42.178;24.622;2023-04-30T10:52:12;99532.75;;;22.94;41.49
12203;BME280;6164;42.178;24.622;2023-04-30T10:54:39;99522.75;;;23.11;41.72
12203;BME280;6164;42.178;24.622;2023-04-30T10:57:16;99519.63;;;22.97;42.01
12203;BME280;6164;42.178;24.622;2023-04-30T10:59:53;99499.44;;;23.00;43.20
12203;BME280;6164;42.178;24.622;2023-04-30T11:02:40;99506.47;;;23.01;42.48
12203;BME280;6164;42.178;24.622;2023-04-30T11:05:11;99504.41;;;22.86;42.41
12203;BME280;6164;42.178;24.622;2023-04-30T11:07:46;99494.13;;;23.05;42.32
12203;BME280;6164;42.178;24.622;2023-04-30T11:10:14;99450.63;;;22.91;42.08
12203;BME280;6164;42.178;24.622;2023-04-30T11:12:46;99522.00;;;23.37;40.93
12203;BME280;6164;42.178;24.622;2023-04-30T11:15:16;99510.88;;;23.55;41.70
12203;BME280;6164;42.178;24.622;2023-04-30T11:17:44;99502.31;;;23.90;41.46
12203;BME280;6164;42.178;24.622;2023-04-30T11:20:12;99507.75;;;24.21;40.22
12203;BME280;6164;42.178;24.622;2023-04-30T11:22:39;99542.69;;;24.06;39.49
12203;BME280;6164;42.178;24.622;2023-04-30T11:25:08;99542.63;;;24.01;40.15
12203;BME280;6164;42.178;24.622;2023-04-30T11:27:36;99511.59;;;24.35;40.99
12203;BME280;6164;42.178;24.622;2023-04-30T11:30:09;99544.53;;;24.69;39.17
12203;BME280;6164;42.178;24.622;2023-04-30T11:32:38;99574.22;;;24.69;38.35
12203;BME280;6164;42.178;24.622;2023-04-30T11:35:06;99606.31;;;24.65;37.76
12203;BME280;6164;42.178;24.622;2023-04-30T11:37:34;99615.84;;;24.78;36.82
12203;BME280;6164;42.178;24.622;2023-04-30T11:40:03;99588.78;;;25.10;38.54
12203;BME280;6164;42.178;24.622;2023-04-30T11:42:32;99618.53;;;25.15;37.75
12203;BME280;6164;42.178;24.622;2023-04-30T11:45:05;99620.84;;;24.96;36.68
12203;BME280;6164;42.178;24.622;2023-04-30T11:47:41;99642.28;;;25.13;36.06
12203;BME280;6164;42.178;24.622;2023-04-30T11:50:08;99615.44;;;25.38;37.54
12203;BME280;6164;42.178;24.622;2023-04-30T11:52:36;99635.34;;;25.27;36.53
12203;BME280;6164;42.178;24.622;2023-04-30T11:55:11;99632.53;;;25.07;37.29
12203;BME280;6164;42.178;24.622;2023-04-30T11:57:40;99631.31;;;24.83;37.16
12203;BME280;6164;42.178;24.622;2023-04-30T12:00:12;99607.91;;;24.98;37.13
12203;BME280;6164;42.178;24.622;2023-04-30T12:02:41;99614.38;;;25.49;37.36
12203;BME280;6164;42.178;24.622;2023-04-30T12:05:14;99638.19;;;25.52;36.29
12203;BME280;6164;42.178;24.622;2023-04-30T12:07:49;99667.53;;;24.92;36.46
12203;BME280;6164;42.178;24.622;2023-04-30T12:10:18;99682.53;;;24.19;36.42
12203;BME280;6164;42.178;24.622;2023-04-30T12:12:45;99673.56;;;23.71;37.40
12203;BME280;6164;42.178;24.622;2023-04-30T12:15:14;99639.03;;;23.46;37.67
12203;BME280;6164;42.178;24.622;2023-04-30T12:17:45;99613.13;;;23.88;37.82
12203;BME280;6164;42.178;24.622;2023-04-30T12:20:12;99597.09;;;23.77;38.74
12203;BME280;6164;42.178;24.622;2023-04-30T12:22:41;99587.75;;;24.11;39.13
12203;BME280;6164;42.178;24.622;2023-04-30T12:25:11;99580.75;;;24.41;38.35
12203;BME280;6164;42.178;24.622;2023-04-30T12:27:40;99608.63;;;24.20;38.74
12203;BME280;6164;42.178;24.622;2023-04-30T12:30:08;99608.41;;;24.27;37.76
12203;BME280;6164;42.178;24.622;2023-04-30T12:32:39;99624.09;;;24.30;36.12
12203;BME280;6164;42.178;24.622;2023-04-30T12:35:12;99634.72;;;24.41;36.63
12203;BME280;6164;42.178;24.622;2023-04-30T12:37:41;99631.78;;;24.80;36.09
12203;BME280;6164;42.178;24.622;2023-04-30T12:40:12;99663.09;;;24.76;35.06
12203;BME280;6164;42.178;24.622;2023-04-30T12:42:40;99662.31;;;24.80;36.15
12203;BME280;6164;42.178;24.622;2023-04-30T12:45:08;99679.56;;;24.74;35.21
12203;BME280;6164;42.178;24.622;2023-04-30T12:47:38;99677.97;;;25.15;35.77
12203;BME280;6164;42.178;24.622;2023-04-30T12:50:08;99709.50;;;24.46;34.09
12203;BME280;6164;42.178;24.622;2023-04-30T12:52:37;99730.53;;;24.44;34.61
12203;BME280;6164;42.178;24.622;2023-04-30T12:55:14;99742.16;;;24.44;34.93
12203;BME280;6164;42.178;24.622;2023-04-30T12:58:03;99728.75;;;24.28;35.54
12203;BME280;6164;42.178;24.622;2023-04-30T13:00:45;99654.72;;;23.49;39.73
12203;BME280;6164;42.178;24.622;2023-04-30T13:03:13;99616.13;;;22.89;40.46